sensor_id;sensor_type;location;lat;lon;timestamp;P1;durP1;ratioP1;P2;durP2;ratioP2
83513;SDS011;73447;53.262;10.424;2024-01-06T00:00:19;10.85;;;5.72;;
83513;SDS011;73447;53.262;10.424;2024-01-06T00:02:48;15.52;;;6.30;;
83513;SDS011;73447;53.262;10.424;2024-01-06T00:05:13;10.90;;;6.13;;
83513;SDS011;73447;53.262;10.424;2024-01-06T00:07:39;11.10;;;6.13;;
83513;SDS011;73447;53.262;10.424;2024-01-06T00:10:05;12.82;;;6.35;;
83513;SDS011;73447;53.262;10.424;2024-01-06T00:12:31;11.32;;;6.32;;
83513;SDS011;73447;53.262;10.424;2024-01-06T00:14:56;11.98;;;6.38;;
83513;SDS011;73447;53.262;10.424;2024-01-06T00:17:22;9.80;;;5.80;;
83513;SDS011;73447;53.262;10.424;2024-01-06T00:19:47;11.95;;;6.03;;
83513;SDS011;73447;53.262;10.424;2024-01-06T00:22:16;10.93;;;6.32;;
83513;SDS011;73447;53.262;10.424;2024-01-06T00:24:42;12.52;;;6.38;;
83513;SDS011;73447;53.262;10.424;2024-01-06T00:27:07;12.02;;;6.65;;
83513;SDS011;73447;53.262;10.424;2024-01-06T00:29:33;13.20;;;7.22;;
83513;SDS011;73447;53.262;10.424;2024-01-06T00:31:58;11.13;;;6.47;;
83513;SDS011;73447;53.262;10.424;2024-01-06T00:34:24;14.35;;;6.85;;
83513;SDS011;73447;53.262;10.424;2024-01-06T00:36:49;12.82;;;6.57;;
83513;SDS011;73447;53.262;10.424;2024-01-06T00:39:14;12.27;;;7.07;;
83513;SDS011;73447;53.262;10.424;2024-01-06T00:41:40;12.20;;;6.90;;
83513;SDS011;73447;53.262;10.424;2024-01-06T00:44:05;16.58;;;7.07;;
83513;SDS011;73447;53.262;10.424;2024-01-06T00:46:30;15.32;;;7.30;;
83513;SDS011;73447;53.262;10.424;2024-01-06T00:48:56;11.73;;;6.28;;
83513;SDS011;73447;53.262;10.424;2024-01-06T00:51:21;14.32;;;7.00;;
83513;SDS011;73447;53.262;10.424;2024-01-06T00:53:47;13.68;;;6.80;;
83513;SDS011;73447;53.262;10.424;2024-01-06T00:56:12;14.07;;;7.20;;
83513;SDS011;73447;53.262;10.424;2024-01-06T00:58:38;14.27;;;7.53;;
83513;SDS011;73447;53.262;10.424;2024-01-06T01:01:03;13.10;;;6.88;;
83513;SDS011;73447;53.262;10.424;2024-01-06T01:03:29;15.25;;;7.30;;
83513;SDS011;73447;53.262;10.424;2024-01-06T01:05:54;14.32;;;7.05;;
83513;SDS011;73447;53.262;10.424;2024-01-06T01:08:20;13.23;;;7.38;;
83513;SDS011;73447;53.262;10.424;2024-01-06T01:10:45;14.20;;;6.85;;
83513;SDS011;73447;53.262;10.424;2024-01-06T01:13:11;13.48;;;7.07;;
83513;SDS011;73447;53.262;10.424;2024-01-06T01:15:36;11.07;;;6.28;;
83513;SDS011;73447;53.262;10.424;2024-01-06T01:18:02;11.82;;;6.43;;
83513;SDS011;73447;53.262;10.424;2024-01-06T01:20:27;13.25;;;6.78;;
83513;SDS011;73447;53.262;10.424;2024-01-06T01:22:52;12.23;;;6.63;;
83513;SDS011;73447;53.262;10.424;2024-01-06T01:25:18;14.48;;;6.38;;
83513;SDS011;73447;53.262;10.424;2024-01-06T01:27:43;12.20;;;6.53;;
83513;SDS011;73447;53.262;10.424;2024-01-06T01:30:09;12.80;;;6.20;;
83513;SDS011;73447;53.262;10.424;2024-01-06T01:32:34;14.77;;;6.45;;
83513;SDS011;73447;53.262;10.424;2024-01-06T01:35:00;10.75;;;6.20;;
83513;SDS011;73447;53.262;10.424;2024-01-06T01:37:25;11.43;;;6.60;;
83513;SDS011;73447;53.262;10.424;2024-01-06T01:39:50;11.00;;;6.20;;
83513;SDS011;73447;53.262;10.424;2024-01-06T01:42:16;16.65;;;7.80;;
83513;SDS011;73447;53.262;10.424;2024-01-06T01:44:44;10.70;;;6.00;;
83513;SDS011;73447;53.262;10.424;2024-01-06T01:47:10;12.30;;;6.43;;
83513;SDS011;73447;53.262;10.424;2024-01-06T01:49:36;13.00;;;6.57;;
83513;SDS011;73447;53.262;10.424;2024-01-06T01:52:03;14.95;;;6.93;;
83513;SDS011;73447;53.262;10.424;2024-01-06T01:54:29;13.13;;;6.85;;
83513;SDS011;73447;53.262;10.424;2024-01-06T01:56:54;12.90;;;7.45;;
83513;SDS011;73447;53.262;10.424;2024-01-06T01:59:20;12.93;;;6.40;;
83513;SDS011;73447;53.262;10.424;2024-01-06T02:01:45;13.82;;;6.82;;
83513;SDS011;73447;53.262;10.424;2024-01-06T02:04:11;12.48;;;6.35;;
83513;SDS011;73447;53.262;10.424;2024-01-06T02:06:37;14.30;;;7.05;;
83513;SDS011;73447;53.262;10.424;2024-01-06T02:09:03;14.13;;;7.68;;
83513;SDS011;73447;53.262;10.424;2024-01-06T02:11:28;14.82;;;7.10;;
83513;SDS011;73447;53.262;10.424;2024-01-06T02:13:53;11.63;;;7.22;;
83513;SDS011;73447;53.262;10.424;2024-01-06T02:16:19;14.90;;;7.15;;
83513;SDS011;73447;53.262;10.424;2024-01-06T02:18:44;13.50;;;6.57;;
83513;SDS011;73447;53.262;10.424;2024-01-06T02:21:10;14.38;;;6.97;;
83513;SDS011;73447;53.262;10.424;2024-01-06T02:23:36;11.98;;;6.63;;
83513;SDS011;73447;53.262;10.424;2024-01-06T02:26:02;14.20;;;7.93;;
83513;SDS011;73447;53.262;10.424;2024-01-06T02:28:28;13.90;;;7.93;;
83513;SDS011;73447;53.262;10.424;2024-01-06T02:30:53;13.20;;;7.15;;
83513;SDS011;73447;53.262;10.424;2024-01-06T02:33:19;12.48;;;7.20;;
83513;SDS011;73447;53.262;10.424;2024-01-06T02:35:47;15.15;;;7.32;;
83513;SDS011;73447;53.262;10.424;2024-01-06T02:38:12;15.93;;;8.00;;
83513;SDS011;73447;53.262;10.424;2024-01-06T02:40:38;15.68;;;7.43;;
83513;SDS011;73447;53.262;10.424;2024-01-06T02:43:03;12.02;;;7.28;;
83513;SDS011;73447;53.262;10.424;2024-01-06T02:45:29;16.02;;;8.43;;
83513;SDS011;73447;53.262;10.424;2024-01-06T02:47:54;14.07;;;7.38;;
83513;SDS011;73447;53.262;10.424;2024-01-06T02:50:19;14.70;;;7.60;;
83513;SDS011;73447;53.262;10.424;2024-01-06T02:52:45;14.73;;;6.75;;
83513;SDS011;73447;53.262;10.424;2024-01-06T02:55:10;12.10;;;6.65;;
83513;SDS011;73447;53.262;10.424;2024-01-06T02:57:37;15.90;;;7.05;;
83513;SDS011;73447;53.262;10.424;2024-01-06T03:00:02;12.43;;;7.00;;
83513;SDS011;73447;53.262;10.424;2024-01-06T03:02:28;12.68;;;6.82;;
83513;SDS011;73447;53.262;10.424;2024-01-06T03:04:54;11.88;;;6.78;;
83513;SDS011;73447;53.262;10.424;2024-01-06T03:07:20;12.93;;;6.30;;
83513;SDS011;73447;53.262;10.424;2024-01-06T03:09:46;11.30;;;7.18;;
83513;SDS011;73447;53.262;10.424;2024-01-06T03:12:11;14.93;;;7.80;;
83513;SDS011;73447;53.262;10.424;2024-01-06T03:14:37;12.63;;;6.45;;
83513;SDS011;73447;53.262;10.424;2024-01-06T03:17:03;16.63;;;7.60;;
83513;SDS011;73447;53.262;10.424;2024-01-06T03:19:29;11.68;;;6.75;;
83513;SDS011;73447;53.262;10.424;2024-01-06T03:21:55;12.45;;;6.72;;
83513;SDS011;73447;53.262;10.424;2024-01-06T03:24:21;14.40;;;6.97;;
83513;SDS011;73447;53.262;10.424;2024-01-06T03:26:47;13.93;;;7.43;;
83513;SDS011;73447;53.262;10.424;2024-01-06T03:29:13;12.73;;;6.95;;
83513;SDS011;73447;53.262;10.424;2024-01-06T03:31:41;14.57;;;6.75;;
83513;SDS011;73447;53.262;10.424;2024-01-06T03:34:10;15.85;;;7.13;;
83513;SDS011;73447;53.262;10.424;2024-01-06T03:36:38;14.13;;;6.38;;
83513;SDS011;73447;53.262;10.424;2024-01-06T03:39:04;13.32;;;7.65;;
83513;SDS011;73447;53.262;10.424;2024-01-06T03:41:30;10.68;;;5.70;;
83513;SDS011;73447;53.262;10.424;2024-01-06T03:43:56;15.15;;;7.53;;
83513;SDS011;73447;53.262;10.424;2024-01-06T03:46:22;11.73;;;6.90;;
83513;SDS011;73447;53.262;10.424;2024-01-06T03:48:47;12.52;;;7.20;;
83513;SDS011;73447;53.262;10.424;2024-01-06T03:51:13;11.73;;;6.43;;
83513;SDS011;73447;53.262;10.424;2024-01-06T03:53:38;13.60;;;6.80;;
83513;SDS011;73447;53.262;10.424;2024-01-06T03:56:05;11.90;;;7.18;;
83513;SDS011;73447;53.262;10.424;2024-01-06T03:58:31;14.02;;;7.38;;
83513;SDS011;73447;53.262;10.424;2024-01-06T04:00:56;13.30;;;7.47;;
83513;SDS011;73447;53.262;10.424;2024-01-06T04:03:22;12.55;;;7.25;;
83513;SDS011;73447;53.262;10.424;2024-01-06T04:05:47;11.85;;;6.68;;
83513;SDS011;73447;53.262;10.424;2024-01-06T04:08:12;11.60;;;7.47;;
83513;SDS011;73447;53.262;10.424;2024-01-06T04:10:38;13.20;;;6.22;;
83513;SDS011;73447;53.262;10.424;2024-01-06T04:13:04;13.13;;;6.88;;
83513;SDS011;73447;53.262;10.424;2024-01-06T04:15:29;15.10;;;6.97;;
83513;SDS011;73447;53.262;10.424;2024-01-06T04:17:54;12.43;;;7.10;;
83513;SDS011;73447;53.262;10.424;2024-01-06T04:20:20;12.70;;;7.28;;
83513;SDS011;73447;53.262;10.424;2024-01-06T04:22:45;15.23;;;8.38;;
83513;SDS011;73447;53.262;10.424;2024-01-06T04:25:11;14.23;;;7.60;;
83513;SDS011;73447;53.262;10.424;2024-01-06T04:27:36;14.10;;;6.85;;
83513;SDS011;73447;53.262;10.424;2024-01-06T04:30:02;13.93;;;6.88;;
83513;SDS011;73447;53.262;10.424;2024-01-06T04:32:27;11.25;;;6.50;;
83513;SDS011;73447;53.262;10.424;2024-01-06T04:34:53;14.15;;;7.28;;
83513;SDS011;73447;53.262;10.424;2024-01-06T04:37:18;13.25;;;7.32;;
83513;SDS011;73447;53.262;10.424;2024-01-06T04:39:43;13.40;;;7.57;;
83513;SDS011;73447;53.262;10.424;2024-01-06T04:42:09;12.85;;;7.38;;
83513;SDS011;73447;53.262;10.424;2024-01-06T04:44:34;15.35;;;7.90;;
83513;SDS011;73447;53.262;10.424;2024-01-06T04:46:59;14.30;;;7.57;;
83513;SDS011;73447;53.262;10.424;2024-01-06T04:49:25;15.35;;;8.25;;
83513;SDS011;73447;53.262;10.424;2024-01-06T04:51:50;12.30;;;7.55;;
83513;SDS011;73447;53.262;10.424;2024-01-06T04:54:16;13.95;;;7.05;;
83513;SDS011;73447;53.262;10.424;2024-01-06T04:56:41;13.52;;;6.75;;
83513;SDS011;73447;53.262;10.424;2024-01-06T04:59:06;17.73;;;8.45;;
83513;SDS011;73447;53.262;10.424;2024-01-06T05:01:32;14.55;;;7.63;;
83513;SDS011;73447;53.262;10.424;2024-01-06T05:03:58;14.02;;;7.30;;
83513;SDS011;73447;53.262;10.424;2024-01-06T05:06:24;16.00;;;7.72;;
83513;SDS011;73447;53.262;10.424;2024-01-06T05:08:49;11.77;;;6.53;;
83513;SDS011;73447;53.262;10.424;2024-01-06T05:11:15;14.55;;;7.90;;
83513;SDS011;73447;53.262;10.424;2024-01-06T05:13:40;15.45;;;8.18;;
83513;SDS011;73447;53.262;10.424;2024-01-06T05:16:06;14.80;;;7.78;;
83513;SDS011;73447;53.262;10.424;2024-01-06T05:18:33;15.20;;;7.25;;
83513;SDS011;73447;53.262;10.424;2024-01-06T05:20:59;16.77;;;8.38;;
83513;SDS011;73447;53.262;10.424;2024-01-06T05:23:25;15.25;;;7.97;;
83513;SDS011;73447;53.262;10.424;2024-01-06T05:25:50;14.60;;;8.40;;
83513;SDS011;73447;53.262;10.424;2024-01-06T05:28:16;13.40;;;7.63;;
83513;SDS011;73447;53.262;10.424;2024-01-06T05:30:41;14.55;;;8.77;;
83513;SDS011;73447;53.262;10.424;2024-01-06T05:33:09;14.82;;;7.72;;
83513;SDS011;73447;53.262;10.424;2024-01-06T05:35:35;16.33;;;8.70;;
83513;SDS011;73447;53.262;10.424;2024-01-06T05:38:00;15.65;;;8.18;;
83513;SDS011;73447;53.262;10.424;2024-01-06T05:40:26;15.93;;;8.15;;
83513;SDS011;73447;53.262;10.424;2024-01-06T05:42:51;16.15;;;8.38;;
83513;SDS011;73447;53.262;10.424;2024-01-06T05:45:20;15.45;;;9.13;;
83513;SDS011;73447;53.262;10.424;2024-01-06T05:47:46;16.00;;;9.63;;
83513;SDS011;73447;53.262;10.424;2024-01-06T05:50:11;14.65;;;8.02;;
83513;SDS011;73447;53.262;10.424;2024-01-06T05:52:40;18.20;;;8.70;;
83513;SDS011;73447;53.262;10.424;2024-01-06T05:55:06;17.65;;;9.30;;
83513;SDS011;73447;53.262;10.424;2024-01-06T05:57:31;15.50;;;7.85;;
83513;SDS011;73447;53.262;10.424;2024-01-06T05:59:57;16.65;;;9.07;;
83513;SDS011;73447;53.262;10.424;2024-01-06T06:02:22;14.98;;;8.73;;
83513;SDS011;73447;53.262;10.424;2024-01-06T06:04:47;16.55;;;8.27;;
83513;SDS011;73447;53.262;10.424;2024-01-06T06:07:13;16.98;;;9.43;;
83513;SDS011;73447;53.262;10.424;2024-01-06T06:09:39;15.18;;;8.65;;
83513;SDS011;73447;53.262;10.424;2024-01-06T06:12:05;16.60;;;9.25;;
83513;SDS011;73447;53.262;10.424;2024-01-06T06:14:31;18.00;;;9.18;;
83513;SDS011;73447;53.262;10.424;2024-01-06T06:16:56;16.20;;;9.13;;
83513;SDS011;73447;53.262;10.424;2024-01-06T06:19:22;18.90;;;9.73;;
83513;SDS011;73447;53.262;10.424;2024-01-06T06:21:47;16.98;;;9.20;;
83513;SDS011;73447;53.262;10.424;2024-01-06T06:24:12;17.88;;;9.80;;
83513;SDS011;73447;53.262;10.424;2024-01-06T06:26:38;17.20;;;9.77;;
83513;SDS011;73447;53.262;10.424;2024-01-06T06:29:04;18.55;;;9.23;;
83513;SDS011;73447;53.262;10.424;2024-01-06T06:31:29;14.55;;;9.05;;
83513;SDS011;73447;53.262;10.424;2024-01-06T06:33:55;15.77;;;9.13;;
83513;SDS011;73447;53.262;10.424;2024-01-06T06:36:20;18.40;;;9.95;;
83513;SDS011;73447;53.262;10.424;2024-01-06T06:38:45;18.23;;;9.23;;
83513;SDS011;73447;53.262;10.424;2024-01-06T06:41:11;19.80;;;9.60;;
83513;SDS011;73447;53.262;10.424;2024-01-06T06:43:36;18.17;;;9.88;;
83513;SDS011;73447;53.262;10.424;2024-01-06T06:46:02;15.18;;;8.60;;
83513;SDS011;73447;53.262;10.424;2024-01-06T06:48:27;15.30;;;9.18;;
83513;SDS011;73447;53.262;10.424;2024-01-06T06:50:52;15.23;;;8.25;;
83513;SDS011;73447;53.262;10.424;2024-01-06T06:53:18;18.90;;;10.07;;
83513;SDS011;73447;53.262;10.424;2024-01-06T06:55:43;18.42;;;10.73;;
83513;SDS011;73447;53.262;10.424;2024-01-06T06:58:09;20.23;;;10.43;;
83513;SDS011;73447;53.262;10.424;2024-01-06T07:00:34;17.73;;;10.20;;
83513;SDS011;73447;53.262;10.424;2024-01-06T07:03:00;18.65;;;9.38;;
83513;SDS011;73447;53.262;10.424;2024-01-06T07:05:26;21.17;;;10.00;;
83513;SDS011;73447;53.262;10.424;2024-01-06T07:07:51;19.30;;;9.93;;
83513;SDS011;73447;53.262;10.424;2024-01-06T07:10:16;20.60;;;11.20;;
83513;SDS011;73447;53.262;10.424;2024-01-06T07:12:42;21.15;;;10.77;;
83513;SDS011;73447;53.262;10.424;2024-01-06T07:15:08;20.60;;;11.07;;
83513;SDS011;73447;53.262;10.424;2024-01-06T07:17:36;18.95;;;10.40;;
83513;SDS011;73447;53.262;10.424;2024-01-06T07:20:03;19.58;;;10.52;;
83513;SDS011;73447;53.262;10.424;2024-01-06T07:22:31;18.95;;;10.82;;
83513;SDS011;73447;53.262;10.424;2024-01-06T07:24:57;17.27;;;9.55;;
83513;SDS011;73447;53.262;10.424;2024-01-06T07:27:23;19.25;;;10.27;;
83513;SDS011;73447;53.262;10.424;2024-01-06T07:29:48;17.65;;;10.55;;
83513;SDS011;73447;53.262;10.424;2024-01-06T07:32:13;20.25;;;10.40;;
83513;SDS011;73447;53.262;10.424;2024-01-06T07:34:40;19.98;;;11.18;;
83513;SDS011;73447;53.262;10.424;2024-01-06T07:37:05;20.98;;;10.30;;
83513;SDS011;73447;53.262;10.424;2024-01-06T07:39:31;16.45;;;9.65;;
83513;SDS011;73447;53.262;10.424;2024-01-06T07:41:56;18.58;;;9.77;;
83513;SDS011;73447;53.262;10.424;2024-01-06T07:44:22;17.88;;;10.43;;
83513;SDS011;73447;53.262;10.424;2024-01-06T07:46:50;14.95;;;9.10;;
83513;SDS011;73447;53.262;10.424;2024-01-06T07:49:16;20.20;;;10.35;;
83513;SDS011;73447;53.262;10.424;2024-01-06T07:51:41;18.55;;;10.20;;
83513;SDS011;73447;53.262;10.424;2024-01-06T07:54:07;18.75;;;10.40;;
83513;SDS011;73447;53.262;10.424;2024-01-06T07:56:33;18.67;;;10.23;;
83513;SDS011;73447;53.262;10.424;2024-01-06T07:58:59;19.67;;;10.48;;
83513;SDS011;73447;53.262;10.424;2024-01-06T08:01:24;21.13;;;11.43;;
83513;SDS011;73447;53.262;10.424;2024-01-06T08:03:50;19.13;;;10.98;;
83513;SDS011;73447;53.262;10.424;2024-01-06T08:06:15;19.60;;;10.52;;
83513;SDS011;73447;53.262;10.424;2024-01-06T08:08:41;17.45;;;9.82;;
83513;SDS011;73447;53.262;10.424;2024-01-06T08:11:06;19.42;;;10.95;;
83513;SDS011;73447;53.262;10.424;2024-01-06T08:13:31;20.27;;;12.15;;
83513;SDS011;73447;53.262;10.424;2024-01-06T08:15:57;18.77;;;9.85;;
83513;SDS011;73447;53.262;10.424;2024-01-06T08:18:22;17.45;;;10.77;;
83513;SDS011;73447;53.262;10.424;2024-01-06T08:20:48;18.85;;;9.95;;
83513;SDS011;73447;53.262;10.424;2024-01-06T08:23:14;20.48;;;10.80;;
83513;SDS011;73447;53.262;10.424;2024-01-06T08:25:39;17.10;;;9.05;;
83513;SDS011;73447;53.262;10.424;2024-01-06T08:28:05;20.90;;;10.57;;
83513;SDS011;73447;53.262;10.424;2024-01-06T08:30:30;18.52;;;9.65;;
83513;SDS011;73447;53.262;10.424;2024-01-06T08:32:55;18.75;;;9.93;;
83513;SDS011;73447;53.262;10.424;2024-01-06T08:35:21;16.75;;;9.38;;
83513;SDS011;73447;53.262;10.424;2024-01-06T08:37:46;18.73;;;9.88;;
83513;SDS011;73447;53.262;10.424;2024-01-06T08:40:12;18.08;;;10.77;;
83513;SDS011;73447;53.262;10.424;2024-01-06T08:42:37;16.33;;;8.95;;
83513;SDS011;73447;53.262;10.424;2024-01-06T08:45:03;18.63;;;9.70;;
83513;SDS011;73447;53.262;10.424;2024-01-06T08:47:30;17.00;;;9.95;;
83513;SDS011;73447;53.262;10.424;2024-01-06T08:49:55;16.10;;;8.95;;
83513;SDS011;73447;53.262;10.424;2024-01-06T08:52:21;19.90;;;10.45;;
83513;SDS011;73447;53.262;10.424;2024-01-06T08:54:46;17.80;;;9.95;;
83513;SDS011;73447;53.262;10.424;2024-01-06T08:57:11;18.50;;;9.98;;
83513;SDS011;73447;53.262;10.424;2024-01-06T08:59:37;16.85;;;10.45;;
83513;SDS011;73447;53.262;10.424;2024-01-06T09:02:03;18.25;;;9.30;;
83513;SDS011;73447;53.262;10.424;2024-01-06T09:04:28;18.50;;;9.57;;
83513;SDS011;73447;53.262;10.424;2024-01-06T09:06:54;16.83;;;9.60;;
83513;SDS011;73447;53.262;10.424;2024-01-06T09:09:19;18.52;;;10.75;;
83513;SDS011;73447;53.262;10.424;2024-01-06T09:11:44;18.67;;;10.00;;
83513;SDS011;73447;53.262;10.424;2024-01-06T09:14:11;20.13;;;11.32;;
83513;SDS011;73447;53.262;10.424;2024-01-06T09:16:36;20.77;;;10.82;;
83513;SDS011;73447;53.262;10.424;2024-01-06T09:19:02;16.95;;;10.18;;
83513;SDS011;73447;53.262;10.424;2024-01-06T09:21:27;20.08;;;10.35;;
83513;SDS011;73447;53.262;10.424;2024-01-06T09:23:53;16.77;;;9.60;;
83513;SDS011;73447;53.262;10.424;2024-01-06T09:26:18;19.58;;;10.88;;
83513;SDS011;73447;53.262;10.424;2024-01-06T09:28:44;16.77;;;9.35;;
83513;SDS011;73447;53.262;10.424;2024-01-06T09:31:09;16.48;;;9.50;;
83513;SDS011;73447;53.262;10.424;2024-01-06T09:33:34;15.80;;;9.27;;
83513;SDS011;73447;53.262;10.424;2024-01-06T09:36:00;21.65;;;10.80;;
83513;SDS011;73447;53.262;10.424;2024-01-06T09:38:26;19.98;;;10.63;;
83513;SDS011;73447;53.262;10.424;2024-01-06T09:40:52;19.05;;;10.90;;
83513;SDS011;73447;53.262;10.424;2024-01-06T09:43:19;18.85;;;9.52;;
83513;SDS011;73447;53.262;10.424;2024-01-06T09:45:45;16.02;;;8.88;;
83513;SDS011;73447;53.262;10.424;2024-01-06T09:48:19;28.05;;;11.80;;
83513;SDS011;73447;53.262;10.424;2024-01-06T09:50:47;21.17;;;9.75;;
83513;SDS011;73447;53.262;10.424;2024-01-06T09:53:18;18.27;;;10.15;;
83513;SDS011;73447;53.262;10.424;2024-01-06T09:55:44;17.20;;;9.55;;
83513;SDS011;73447;53.262;10.424;2024-01-06T09:58:10;16.13;;;9.20;;
83513;SDS011;73447;53.262;10.424;2024-01-06T10:00:35;17.60;;;9.60;;
83513;SDS011;73447;53.262;10.424;2024-01-06T10:03:01;15.05;;;9.23;;
83513;SDS011;73447;53.262;10.424;2024-01-06T10:05:26;16.05;;;8.52;;
83513;SDS011;73447;53.262;10.424;2024-01-06T10:07:51;19.42;;;9.95;;
83513;SDS011;73447;53.262;10.424;2024-01-06T10:10:17;17.33;;;10.10;;
83513;SDS011;73447;53.262;10.424;2024-01-06T10:12:42;19.23;;;9.55;;
83513;SDS011;73447;53.262;10.424;2024-01-06T10:15:09;18.60;;;10.57;;
83513;SDS011;73447;53.262;10.424;2024-01-06T10:17:41;19.23;;;9.77;;
83513;SDS011;73447;53.262;10.424;2024-01-06T10:20:10;19.35;;;9.40;;
83513;SDS011;73447;53.262;10.424;2024-01-06T10:22:37;16.35;;;9.35;;
83513;SDS011;73447;53.262;10.424;2024-01-06T10:25:05;17.55;;;9.68;;
83513;SDS011;73447;53.262;10.424;2024-01-06T10:27:36;20.20;;;10.60;;
83513;SDS011;73447;53.262;10.424;2024-01-06T10:30:03;18.50;;;9.13;;
83513;SDS011;73447;53.262;10.424;2024-01-06T10:32:32;18.70;;;9.63;;
83513;SDS011;73447;53.262;10.424;2024-01-06T10:34:58;18.70;;;10.25;;
83513;SDS011;73447;53.262;10.424;2024-01-06T10:37:28;18.83;;;10.05;;
83513;SDS011;73447;53.262;10.424;2024-01-06T10:40:10;18.20;;;9.82;;
83513;SDS011;73447;53.262;10.424;2024-01-06T10:42:37;18.38;;;9.95;;
83513;SDS011;73447;53.262;10.424;2024-01-06T10:45:06;21.65;;;9.85;;
83513;SDS011;73447;53.262;10.424;2024-01-06T10:47:34;18.05;;;10.35;;
83513;SDS011;73447;53.262;10.424;2024-01-06T10:50:00;19.13;;;10.82;;
83513;SDS011;73447;53.262;10.424;2024-01-06T10:52:27;21.58;;;10.82;;
83513;SDS011;73447;53.262;10.424;2024-01-06T10:54:56;20.58;;;10.90;;
83513;SDS011;73447;53.262;10.424;2024-01-06T10:57:23;19.30;;;10.30;;
83513;SDS011;73447;53.262;10.424;2024-01-06T10:59:50;18.67;;;10.13;;
83513;SDS011;73447;53.262;10.424;2024-01-06T11:02:17;18.70;;;10.27;;
83513;SDS011;73447;53.262;10.424;2024-01-06T11:04:44;21.58;;;10.63;;
83513;SDS011;73447;53.262;10.424;2024-01-06T11:07:11;21.60;;;11.15;;
83513;SDS011;73447;53.262;10.424;2024-01-06T11:09:39;20.20;;;11.18;;
83513;SDS011;73447;53.262;10.424;2024-01-06T11:12:11;20.45;;;11.02;;
83513;SDS011;73447;53.262;10.424;2024-01-06T11:14:37;20.20;;;11.35;;
83513;SDS011;73447;53.262;10.424;2024-01-06T11:17:02;20.70;;;11.35;;
83513;SDS011;73447;53.262;10.424;2024-01-06T11:24:55;20.02;;;10.00;;
83513;SDS011;73447;53.262;10.424;2024-01-06T11:27:26;21.85;;;10.50;;
83513;SDS011;73447;53.262;10.424;2024-01-06T11:29:54;20.40;;;10.60;;
83513;SDS011;73447;53.262;10.424;2024-01-06T11:32:22;23.63;;;10.73;;
83513;SDS011;73447;53.262;10.424;2024-01-06T11:34:51;17.70;;;9.68;;
83513;SDS011;73447;53.262;10.424;2024-01-06T11:37:18;22.02;;;10.48;;
83513;SDS011;73447;53.262;10.424;2024-01-06T11:39:48;18.02;;;9.85;;
83513;SDS011;73447;53.262;10.424;2024-01-06T11:42:15;19.55;;;9.25;;
83513;SDS011;73447;53.262;10.424;2024-01-06T11:44:43;17.77;;;9.85;;
83513;SDS011;73447;53.262;10.424;2024-01-06T11:47:10;19.52;;;10.35;;
83513;SDS011;73447;53.262;10.424;2024-01-06T11:49:37;19.58;;;10.13;;
83513;SDS011;73447;53.262;10.424;2024-01-06T11:52:02;19.80;;;9.43;;
83513;SDS011;73447;53.262;10.424;2024-01-06T11:54:28;15.52;;;9.38;;
83513;SDS011;73447;53.262;10.424;2024-01-06T11:56:54;18.52;;;9.63;;
83513;SDS011;73447;53.262;10.424;2024-01-06T11:59:21;22.33;;;10.07;;
83513;SDS011;73447;53.262;10.424;2024-01-06T12:01:46;18.75;;;10.52;;
83513;SDS011;73447;53.262;10.424;2024-01-06T12:04:15;18.92;;;9.30;;
83513;SDS011;73447;53.262;10.424;2024-01-06T12:06:40;14.95;;;9.27;;
83513;SDS011;73447;53.262;10.424;2024-01-06T12:09:07;17.17;;;9.02;;
83513;SDS011;73447;53.262;10.424;2024-01-06T12:11:33;17.45;;;10.45;;
83513;SDS011;73447;53.262;10.424;2024-01-06T12:13:58;18.40;;;9.27;;
83513;SDS011;73447;53.262;10.424;2024-01-06T12:16:24;17.90;;;9.65;;
83513;SDS011;73447;53.262;10.424;2024-01-06T12:18:55;18.83;;;10.23;;
83513;SDS011;73447;53.262;10.424;2024-01-06T12:21:22;18.23;;;9.65;;
83513;SDS011;73447;53.262;10.424;2024-01-06T12:23:48;14.95;;;8.45;;
83513;SDS011;73447;53.262;10.424;2024-01-06T12:26:14;18.45;;;8.65;;
83513;SDS011;73447;53.262;10.424;2024-01-06T12:28:39;17.52;;;8.80;;
83513;SDS011;73447;53.262;10.424;2024-01-06T12:31:04;16.77;;;8.95;;
83513;SDS011;73447;53.262;10.424;2024-01-06T12:33:34;14.88;;;8.25;;
83513;SDS011;73447;53.262;10.424;2024-01-06T12:36:02;15.40;;;8.20;;
83513;SDS011;73447;53.262;10.424;2024-01-06T12:38:29;13.85;;;8.20;;
83513;SDS011;73447;53.262;10.424;2024-01-06T12:40:55;14.27;;;8.00;;
83513;SDS011;73447;53.262;10.424;2024-01-06T12:43:21;15.35;;;8.00;;
83513;SDS011;73447;53.262;10.424;2024-01-06T12:45:46;13.95;;;8.00;;
83513;SDS011;73447;53.262;10.424;2024-01-06T12:48:12;15.15;;;8.93;;
83513;SDS011;73447;53.262;10.424;2024-01-06T12:50:38;18.60;;;9.80;;
83513;SDS011;73447;53.262;10.424;2024-01-06T12:53:03;15.30;;;8.57;;
83513;SDS011;73447;53.262;10.424;2024-01-06T12:55:28;17.67;;;8.38;;
83513;SDS011;73447;53.262;10.424;2024-01-06T12:57:54;13.30;;;8.57;;
83513;SDS011;73447;53.262;10.424;2024-01-06T13:00:19;14.05;;;7.80;;
83513;SDS011;73447;53.262;10.424;2024-01-06T13:02:45;13.45;;;7.80;;
83513;SDS011;73447;53.262;10.424;2024-01-06T13:05:10;15.98;;;8.70;;
83513;SDS011;73447;53.262;10.424;2024-01-06T13:07:37;14.27;;;8.50;;
83513;SDS011;73447;53.262;10.424;2024-01-06T13:10:04;13.95;;;8.25;;
83513;SDS011;73447;53.262;10.424;2024-01-06T13:12:30;13.50;;;7.78;;
83513;SDS011;73447;53.262;10.424;2024-01-06T13:14:55;16.23;;;8.55;;
83513;SDS011;73447;53.262;10.424;2024-01-06T13:17:21;15.15;;;8.70;;
83513;SDS011;73447;53.262;10.424;2024-01-06T13:19:46;15.18;;;8.90;;
83513;SDS011;73447;53.262;10.424;2024-01-06T13:22:12;15.75;;;8.43;;
83513;SDS011;73447;53.262;10.424;2024-01-06T13:24:38;17.67;;;9.23;;
83513;SDS011;73447;53.262;10.424;2024-01-06T13:27:05;16.23;;;9.15;;
83513;SDS011;73447;53.262;10.424;2024-01-06T13:29:31;13.18;;;7.43;;
83513;SDS011;73447;53.262;10.424;2024-01-06T13:31:56;14.40;;;7.90;;
83513;SDS011;73447;53.262;10.424;2024-01-06T13:34:22;14.85;;;8.25;;
83513;SDS011;73447;53.262;10.424;2024-01-06T13:36:47;16.83;;;7.90;;
83513;SDS011;73447;53.262;10.424;2024-01-06T13:39:13;15.88;;;8.27;;
83513;SDS011;73447;53.262;10.424;2024-01-06T13:41:47;14.45;;;7.30;;
83513;SDS011;73447;53.262;10.424;2024-01-06T13:44:14;14.90;;;8.23;;
83513;SDS011;73447;53.262;10.424;2024-01-06T13:46:40;11.93;;;7.20;;
83513;SDS011;73447;53.262;10.424;2024-01-06T13:49:12;14.52;;;7.55;;
83513;SDS011;73447;53.262;10.424;2024-01-06T13:51:41;14.80;;;7.07;;
83513;SDS011;73447;53.262;10.424;2024-01-06T13:54:06;9.82;;;6.05;;
83513;SDS011;73447;53.262;10.424;2024-01-06T13:56:32;12.68;;;7.20;;
83513;SDS011;73447;53.262;10.424;2024-01-06T13:58:58;13.15;;;7.65;;
83513;SDS011;73447;53.262;10.424;2024-01-06T14:01:24;14.95;;;7.32;;
83513;SDS011;73447;53.262;10.424;2024-01-06T14:03:50;12.88;;;7.47;;
83513;SDS011;73447;53.262;10.424;2024-01-06T14:06:15;15.40;;;7.95;;
83513;SDS011;73447;53.262;10.424;2024-01-06T14:08:42;14.98;;;7.88;;
83513;SDS011;73447;53.262;10.424;2024-01-06T14:11:08;13.75;;;7.63;;
83513;SDS011;73447;53.262;10.424;2024-01-06T14:13:34;12.45;;;7.15;;
83513;SDS011;73447;53.262;10.424;2024-01-06T14:15:59;14.63;;;8.25;;